sensor_id;sensor_type;location;lat;lon;timestamp;temperature;humidity
26262;DHT22;13988;52.446;13.280;2024-01-30T00:02:16;1.00;99.90
26262;DHT22;13988;52.446;13.280;2024-01-30T00:04:41;1.10;99.90
26262;DHT22;13988;52.446;13.280;2024-01-30T00:07:07;1.10;99.90
26262;DHT22;13988;52.446;13.280;2024-01-30T00:09:33;1.10;99.90
26262;DHT22;13988;52.446;13.280;2024-01-30T00:11:59;1.10;99.90
26262;DHT22;13988;52.446;13.280;2024-01-30T00:14:24;1.00;99.90
26262;DHT22;13988;52.446;13.280;2024-01-30T00:16:53;1.00;99.90
26262;DHT22;13988;52.446;13.280;2024-01-30T00:19:19;1.00;99.90
26262;DHT22;13988;52.446;13.280;2024-01-30T00:21:44;1.00;99.90
26262;DHT22;13988;52.446;13.280;2024-01-30T00:24:10;1.00;99.90
26262;DHT22;13988;52.446;13.280;2024-01-30T00:26:36;1.00;99.90
26262;DHT22;13988;52.446;13.280;2024-01-30T00:29:01;0.90;99.90
26262;DHT22;13988;52.446;13.280;2024-01-30T00:31:27;0.90;99.90
26262;DHT22;13988;52.446;13.280;2024-01-30T00:33:53;0.90;99.90
26262;DHT22;13988;52.446;13.280;2024-01-30T00:36:18;0.90;99.90
26262;DHT22;13988;52.446;13.280;2024-01-30T00:38:44;0.90;99.90
26262;DHT22;13988;52.446;13.280;2024-01-30T00:41:10;0.90;99.90
26262;DHT22;13988;52.446;13.280;2024-01-30T00:43:36;0.90;99.90
26262;DHT22;13988;52.446;13.280;2024-01-30T00:46:02;0.90;99.90
26262;DHT22;13988;52.446;13.280;2024-01-30T00:48:28;0.90;99.90
26262;DHT22;13988;52.446;13.280;2024-01-30T00:50:54;0.80;99.90
26262;DHT22;13988;52.446;13.280;2024-01-30T00:53:20;0.80;99.90
26262;DHT22;13988;52.446;13.280;2024-01-30T00:55:45;0.90;99.90
26262;DHT22;13988;52.446;13.280;2024-01-30T00:58:11;0.90;99.90
26262;DHT22;13988;52.446;13.280;2024-01-30T01:00:37;0.80;99.90
26262;DHT22;13988;52.446;13.280;2024-01-30T01:03:03;0.80;99.90
26262;DHT22;13988;52.446;13.280;2024-01-30T01:05:28;0.80;99.90
26262;DHT22;13988;52.446;13.280;2024-01-30T01:07:54;0.80;99.90
26262;DHT22;13988;52.446;13.280;2024-01-30T01:10:20;0.90;99.90
26262;DHT22;13988;52.446;13.280;2024-01-30T01:12:46;0.90;99.90
26262;DHT22;13988;52.446;13.280;2024-01-30T01:15:11;0.90;99.90
26262;DHT22;13988;52.446;13.280;2024-01-30T01:17:40;0.90;99.90
26262;DHT22;13988;52.446;13.280;2024-01-30T01:20:06;0.90;99.90
26262;DHT22;13988;52.446;13.280;2024-01-30T01:22:33;0.90;99.90
26262;DHT22;13988;52.446;13.280;2024-01-30T01:24:59;0.80;99.90
26262;DHT22;13988;52.446;13.280;2024-01-30T01:27:25;0.90;99.90
26262;DHT22;13988;52.446;13.280;2024-01-30T01:29:51;0.80;99.90
26262;DHT22;13988;52.446;13.280;2024-01-30T01:32:17;0.80;99.90
26262;DHT22;13988;52.446;13.280;2024-01-30T01:34:43;0.90;99.90
26262;DHT22;13988;52.446;13.280;2024-01-30T01:37:09;0.80;99.90
26262;DHT22;13988;52.446;13.280;2024-01-30T01:39:35;0.80;99.90
26262;DHT22;13988;52.446;13.280;2024-01-30T01:42:00;0.80;99.90
26262;DHT22;13988;52.446;13.280;2024-01-30T01:44:27;0.90;99.90
26262;DHT22;13988;52.446;13.280;2024-01-30T01:46:54;0.80;99.90
26262;DHT22;13988;52.446;13.280;2024-01-30T01:49:20;0.80;99.90
26262;DHT22;13988;52.446;13.280;2024-01-30T01:51:47;0.90;99.90
26262;DHT22;13988;52.446;13.280;2024-01-30T01:54:14;0.90;99.90
26262;DHT22;13988;52.446;13.280;2024-01-30T01:56:42;0.90;99.90
26262;DHT22;13988;52.446;13.280;2024-01-30T01:59:08;0.80;99.90
26262;DHT22;13988;52.446;13.280;2024-01-30T02:01:37;1.00;99.90
26262;DHT22;13988;52.446;13.280;2024-01-30T02:04:04;1.00;99.90
26262;DHT22;13988;52.446;13.280;2024-01-30T02:06:32;0.90;99.90
26262;DHT22;13988;52.446;13.280;2024-01-30T02:08:57;0.90;99.90
26262;DHT22;13988;52.446;13.280;2024-01-30T02:11:23;0.90;99.90
26262;DHT22;13988;52.446;13.280;2024-01-30T02:13:49;0.90;99.90
26262;DHT22;13988;52.446;13.280;2024-01-30T02:16:16;0.90;99.90
26262;DHT22;13988;52.446;13.280;2024-01-30T02:18:43;0.90;99.90
26262;DHT22;13988;52.446;13.280;2024-01-30T02:21:11;0.90;99.90
26262;DHT22;13988;52.446;13.280;2024-01-30T02:23:38;1.00;99.90
26262;DHT22;13988;52.446;13.280;2024-01-30T02:26:04;0.90;99.90
26262;DHT22;13988;52.446;13.280;2024-01-30T02:28:30;0.90;99.90
26262;DHT22;13988;52.446;13.280;2024-01-30T02:30:56;0.90;99.90
26262;DHT22;13988;52.446;13.280;2024-01-30T02:33:21;0.90;99.90
26262;DHT22;13988;52.446;13.280;2024-01-30T02:35:48;0.90;99.90
26262;DHT22;13988;52.446;13.280;2024-01-30T02:38:14;1.00;99.90
26262;DHT22;13988;52.446;13.280;2024-01-30T02:40:40;1.00;99.90
26262;DHT22;13988;52.446;13.280;2024-01-30T02:43:06;1.00;99.90
26262;DHT22;13988;52.446;13.280;2024-01-30T02:45:31;0.90;99.90
26262;DHT22;13988;52.446;13.280;2024-01-30T02:47:57;0.90;99.90
26262;DHT22;13988;52.446;13.280;2024-01-30T02:50:23;0.90;99.90
26262;DHT22;13988;52.446;13.280;2024-01-30T02:52:48;0.90;99.90
26262;DHT22;13988;52.446;13.280;2024-01-30T02:55:14;0.80;99.90
26262;DHT22;13988;52.446;13.280;2024-01-30T02:57:42;0.80;99.90
26262;DHT22;13988;52.446;13.280;2024-01-30T03:00:08;0.80;99.90
26262;DHT22;13988;52.446;13.280;2024-01-30T03:02:35;0.80;99.90
26262;DHT22;13988;52.446;13.280;2024-01-30T03:05:01;0.80;99.90
26262;DHT22;13988;52.446;13.280;2024-01-30T03:07:26;0.80;99.90
26262;DHT22;13988;52.446;13.280;2024-01-30T03:09:52;0.80;99.90
26262;DHT22;13988;52.446;13.280;2024-01-30T03:12:18;0.80;99.90
26262;DHT22;13988;52.446;13.280;2024-01-30T03:14:44;0.70;99.90
26262;DHT22;13988;52.446;13.280;2024-01-30T03:17:09;0.70;99.90
26262;DHT22;13988;52.446;13.280;2024-01-30T03:19:35;0.70;99.90
26262;DHT22;13988;52.446;13.280;2024-01-30T03:22:00;0.70;99.90
26262;DHT22;13988;52.446;13.280;2024-01-30T03:24:26;0.60;99.90
26262;DHT22;13988;52.446;13.280;2024-01-30T03:26:52;0.60;99.90
26262;DHT22;13988;52.446;13.280;2024-01-30T03:29:18;0.60;99.90
26262;DHT22;13988;52.446;13.280;2024-01-30T03:31:44;0.60;99.90
26262;DHT22;13988;52.446;13.280;2024-01-30T03:34:09;0.60;99.90
26262;DHT22;13988;52.446;13.280;2024-01-30T03:36:35;0.60;99.90
26262;DHT22;13988;52.446;13.280;2024-01-30T03:39:01;0.50;99.90
26262;DHT22;13988;52.446;13.280;2024-01-30T03:41:27;0.60;99.90
26262;DHT22;13988;52.446;13.280;2024-01-30T03:43:52;0.60;99.90
26262;DHT22;13988;52.446;13.280;2024-01-30T03:46:18;0.50;99.90
26262;DHT22;13988;52.446;13.280;2024-01-30T03:48:45;0.60;99.90
26262;DHT22;13988;52.446;13.280;2024-01-30T03:51:11;0.50;99.90
26262;DHT22;13988;52.446;13.280;2024-01-30T03:53:41;0.50;99.90
26262;DHT22;13988;52.446;13.280;2024-01-30T03:56:08;0.50;99.90
26262;DHT22;13988;52.446;13.280;2024-01-30T03:58:34;0.50;99.90
26262;DHT22;13988;52.446;13.280;2024-01-30T04:00:59;0.50;99.90
26262;DHT22;13988;52.446;13.280;2024-01-30T04:03:25;0.50;99.90
26262;DHT22;13988;52.446;13.280;2024-01-30T04:05:53;0.50;99.90
26262;DHT22;13988;52.446;13.280;2024-01-30T04:08:19;0.50;99.90
26262;DHT22;13988;52.446;13.280;2024-01-30T04:10:46;0.50;99.90
26262;DHT22;13988;52.446;13.280;2024-01-30T04:13:12;0.50;99.90
26262;DHT22;13988;52.446;13.280;2024-01-30T04:15:38;0.50;99.90
26262;DHT22;13988;52.446;13.280;2024-01-30T04:18:03;0.50;99.90
26262;DHT22;13988;52.446;13.280;2024-01-30T04:20:30;0.50;99.90
26262;DHT22;13988;52.446;13.280;2024-01-30T04:22:55;0.50;99.90
26262;DHT22;13988;52.446;13.280;2024-01-30T04:25:21;0.50;99.90
26262;DHT22;13988;52.446;13.280;2024-01-30T04:27:47;0.50;99.90
26262;DHT22;13988;52.446;13.280;2024-01-30T04:30:13;0.50;99.90
26262;DHT22;13988;52.446;13.280;2024-01-30T04:32:39;0.50;99.90
26262;DHT22;13988;52.446;13.280;2024-01-30T04:35:05;0.50;99.90
26262;DHT22;13988;52.446;13.280;2024-01-30T04:37:30;0.50;99.90
26262;DHT22;13988;52.446;13.280;2024-01-30T04:39:56;0.50;99.90
26262;DHT22;13988;52.446;13.280;2024-01-30T04:42:22;0.40;99.90
26262;DHT22;13988;52.446;13.280;2024-01-30T04:44:47;0.50;99.90
26262;DHT22;13988;52.446;13.280;2024-01-30T04:47:13;0.50;99.90
26262;DHT22;13988;52.446;13.280;2024-01-30T04:49:39;0.50;99.90
26262;DHT22;13988;52.446;13.280;2024-01-30T04:52:06;0.50;99.90
26262;DHT22;13988;52.446;13.280;2024-01-30T04:54:32;0.40;99.90
26262;DHT22;13988;52.446;13.280;2024-01-30T04:56:57;0.40;99.90
26262;DHT22;13988;52.446;13.280;2024-01-30T04:59:23;0.40;99.90
26262;DHT22;13988;52.446;13.280;2024-01-30T05:01:49;0.40;99.90
26262;DHT22;13988;52.446;13.280;2024-01-30T05:04:15;0.40;99.90
26262;DHT22;13988;52.446;13.280;2024-01-30T05:06:41;0.40;99.90
26262;DHT22;13988;52.446;13.280;2024-01-30T05:09:06;0.40;99.90
26262;DHT22;13988;52.446;13.280;2024-01-30T05:11:37;0.40;99.90
26262;DHT22;13988;52.446;13.280;2024-01-30T05:14:03;0.40;99.90
26262;DHT22;13988;52.446;13.280;2024-01-30T05:16:29;0.40;99.90
26262;DHT22;13988;52.446;13.280;2024-01-30T05:18:54;0.30;99.90
26262;DHT22;13988;52.446;13.280;2024-01-30T05:21:20;0.30;99.90
26262;DHT22;13988;52.446;13.280;2024-01-30T05:23:45;0.30;99.90
26262;DHT22;13988;52.446;13.280;2024-01-30T05:26:11;0.30;99.90
26262;DHT22;13988;52.446;13.280;2024-01-30T05:28:37;0.30;99.90
26262;DHT22;13988;52.446;13.280;2024-01-30T05:31:03;0.30;99.90
26262;DHT22;13988;52.446;13.280;2024-01-30T05:33:29;0.30;99.90
26262;DHT22;13988;52.446;13.280;2024-01-30T05:35:54;0.30;99.90
26262;DHT22;13988;52.446;13.280;2024-01-30T05:38:20;0.30;99.90
26262;DHT22;13988;52.446;13.280;2024-01-30T05:40:46;0.20;99.90
26262;DHT22;13988;52.446;13.280;2024-01-30T05:43:12;0.30;99.90
26262;DHT22;13988;52.446;13.280;2024-01-30T05:45:37;0.30;99.90
26262;DHT22;13988;52.446;13.280;2024-01-30T05:48:04;0.30;99.90
26262;DHT22;13988;52.446;13.280;2024-01-30T05:50:30;0.20;99.90
26262;DHT22;13988;52.446;13.280;2024-01-30T05:52:56;0.30;99.90
26262;DHT22;13988;52.446;13.280;2024-01-30T05:55:21;0.30;99.90
26262;DHT22;13988;52.446;13.280;2024-01-30T05:57:47;0.30;99.90
26262;DHT22;13988;52.446;13.280;2024-01-30T06:00:13;0.30;99.90
26262;DHT22;13988;52.446;13.280;2024-01-30T06:02:39;0.30;99.90
26262;DHT22;13988;52.446;13.280;2024-01-30T06:05:05;0.30;99.90
26262;DHT22;13988;52.446;13.280;2024-01-30T06:07:31;0.40;99.90
26262;DHT22;13988;52.446;13.280;2024-01-30T06:09:56;0.50;99.90
26262;DHT22;13988;52.446;13.280;2024-01-30T06:12:22;0.40;99.90
26262;DHT22;13988;52.446;13.280;2024-01-30T06:14:47;0.40;99.90
26262;DHT22;13988;52.446;13.280;2024-01-30T06:17:13;0.40;99.90
26262;DHT22;13988;52.446;13.280;2024-01-30T06:19:39;0.40;99.90
26262;DHT22;13988;52.446;13.280;2024-01-30T06:22:05;0.50;99.90
26262;DHT22;13988;52.446;13.280;2024-01-30T06:24:30;0.50;99.90
26262;DHT22;13988;52.446;13.280;2024-01-30T06:26:56;0.60;99.90
26262;DHT22;13988;52.446;13.280;2024-01-30T06:29:22;0.60;99.90
26262;DHT22;13988;52.446;13.280;2024-01-30T06:31:50;0.60;99.90
26262;DHT22;13988;52.446;13.280;2024-01-30T06:34:16;0.60;99.90
26262;DHT22;13988;52.446;13.280;2024-01-30T06:36:41;0.70;99.90
26262;DHT22;13988;52.446;13.280;2024-01-30T06:39:07;0.60;99.90
26262;DHT22;13988;52.446;13.280;2024-01-30T06:41:33;0.70;99.90
26262;DHT22;13988;52.446;13.280;2024-01-30T06:43:59;0.70;99.90
26262;DHT22;13988;52.446;13.280;2024-01-30T06:46:24;0.60;99.90
26262;DHT22;13988;52.446;13.280;2024-01-30T06:48:50;0.70;99.90
26262;DHT22;13988;52.446;13.280;2024-01-30T06:51:16;0.70;99.90
26262;DHT22;13988;52.446;13.280;2024-01-30T06:53:41;0.70;99.90
26262;DHT22;13988;52.446;13.280;2024-01-30T06:56:08;0.60;99.90
26262;DHT22;13988;52.446;13.280;2024-01-30T06:58:33;0.60;99.90
26262;DHT22;13988;52.446;13.280;2024-01-30T07:00:59;0.70;99.90
26262;DHT22;13988;52.446;13.280;2024-01-30T07:03:24;0.70;99.90
26262;DHT22;13988;52.446;13.280;2024-01-30T07:05:50;0.70;99.90
26262;DHT22;13988;52.446;13.280;2024-01-30T07:08:16;0.80;99.90
26262;DHT22;13988;52.446;13.280;2024-01-30T07:10:46;0.80;99.90
26262;DHT22;13988;52.446;13.280;2024-01-30T07:13:11;0.90;99.90
26262;DHT22;13988;52.446;13.280;2024-01-30T07:15:37;0.90;99.90
26262;DHT22;13988;52.446;13.280;2024-01-30T07:18:03;0.90;99.90
26262;DHT22;13988;52.446;13.280;2024-01-30T07:20:30;0.90;99.90
26262;DHT22;13988;52.446;13.280;2024-01-30T07:22:58;1.10;99.90
26262;DHT22;13988;52.446;13.280;2024-01-30T07:25:23;1.10;99.90
26262;DHT22;13988;52.446;13.280;2024-01-30T07:27:52;1.20;99.90
26262;DHT22;13988;52.446;13.280;2024-01-30T07:30:19;1.20;99.90
26262;DHT22;13988;52.446;13.280;2024-01-30T07:32:45;1.30;99.90
26262;DHT22;13988;52.446;13.280;2024-01-30T07:35:11;1.40;99.90
26262;DHT22;13988;52.446;13.280;2024-01-30T07:37:36;1.30;99.90
26262;DHT22;13988;52.446;13.280;2024-01-30T07:40:03;1.50;99.90
26262;DHT22;13988;52.446;13.280;2024-01-30T07:42:28;1.40;99.90
26262;DHT22;13988;52.446;13.280;2024-01-30T07:44:54;1.50;99.90
26262;DHT22;13988;52.446;13.280;2024-01-30T07:47:20;1.60;99.90
26262;DHT22;13988;52.446;13.280;2024-01-30T07:49:45;1.70;99.90
26262;DHT22;13988;52.446;13.280;2024-01-30T07:52:11;1.70;99.90
26262;DHT22;13988;52.446;13.280;2024-01-30T07:54:40;1.80;99.90
26262;DHT22;13988;52.446;13.280;2024-01-30T07:57:05;1.80;99.90
26262;DHT22;13988;52.446;13.280;2024-01-30T07:59:31;1.90;99.90
26262;DHT22;13988;52.446;13.280;2024-01-30T08:01:56;1.90;99.90
26262;DHT22;13988;52.446;13.280;2024-01-30T08:04:22;1.90;99.90
26262;DHT22;13988;52.446;13.280;2024-01-30T08:06:48;2.00;99.90
26262;DHT22;13988;52.446;13.280;2024-01-30T08:09:14;2.00;99.90
26262;DHT22;13988;52.446;13.280;2024-01-30T08:11:40;2.10;99.90
26262;DHT22;13988;52.446;13.280;2024-01-30T08:14:05;2.20;99.90
26262;DHT22;13988;52.446;13.280;2024-01-30T08:16:31;2.20;99.90
26262;DHT22;13988;52.446;13.280;2024-01-30T08:18:56;2.40;99.90
26262;DHT22;13988;52.446;13.280;2024-01-30T08:21:23;2.40;99.90
26262;DHT22;13988;52.446;13.280;2024-01-30T08:23:48;2.40;99.90
26262;DHT22;13988;52.446;13.280;2024-01-30T08:26:14;2.40;99.90
26262;DHT22;13988;52.446;13.280;2024-01-30T08:28:40;2.40;99.90
26262;DHT22;13988;52.446;13.280;2024-01-30T08:31:05;2.50;99.90
26262;DHT22;13988;52.446;13.280;2024-01-30T08:33:31;2.50;99.90
26262;DHT22;13988;52.446;13.280;2024-01-30T08:35:57;2.60;99.90
26262;DHT22;13988;52.446;13.280;2024-01-30T08:38:22;2.70;99.90
26262;DHT22;13988;52.446;13.280;2024-01-30T08:40:48;2.70;99.90
26262;DHT22;13988;52.446;13.280;2024-01-30T08:43:14;2.70;99.90
26262;DHT22;13988;52.446;13.280;2024-01-30T08:45:40;2.90;99.90
26262;DHT22;13988;52.446;13.280;2024-01-30T08:48:06;2.90;99.90
26262;DHT22;13988;52.446;13.280;2024-01-30T08:50:33;3.00;99.90
26262;DHT22;13988;52.446;13.280;2024-01-30T08:52:58;3.00;99.90
26262;DHT22;13988;52.446;13.280;2024-01-30T08:55:24;3.10;99.90
26262;DHT22;13988;52.446;13.280;2024-01-30T08:57:50;3.20;99.90
26262;DHT22;13988;52.446;13.280;2024-01-30T09:00:15;3.20;99.90
26262;DHT22;13988;52.446;13.280;2024-01-30T09:02:41;3.30;99.90
26262;DHT22;13988;52.446;13.280;2024-01-30T09:05:07;3.40;99.90
26262;DHT22;13988;52.446;13.280;2024-01-30T09:07:33;3.50;99.90
26262;DHT22;13988;52.446;13.280;2024-01-30T09:09:58;3.60;99.90
26262;DHT22;13988;52.446;13.280;2024-01-30T09:12:24;3.70;99.90
26262;DHT22;13988;52.446;13.280;2024-01-30T09:14:49;3.80;99.90
26262;DHT22;13988;52.446;13.280;2024-01-30T09:17:15;3.70;99.90
26262;DHT22;13988;52.446;13.280;2024-01-30T09:19:41;3.80;99.90
26262;DHT22;13988;52.446;13.280;2024-01-30T09:22:06;3.80;99.90
26262;DHT22;13988;52.446;13.280;2024-01-30T09:24:32;4.00;99.90
26262;DHT22;13988;52.446;13.280;2024-01-30T09:26:58;3.90;99.90
26262;DHT22;13988;52.446;13.280;2024-01-30T09:29:23;4.00;99.90
26262;DHT22;13988;52.446;13.280;2024-01-30T09:31:49;4.00;99.90
26262;DHT22;13988;52.446;13.280;2024-01-30T09:34:14;4.10;99.90
26262;DHT22;13988;52.446;13.280;2024-01-30T09:36:40;4.10;99.90
26262;DHT22;13988;52.446;13.280;2024-01-30T09:39:06;4.20;99.90
26262;DHT22;13988;52.446;13.280;2024-01-30T09:41:33;4.20;99.90
26262;DHT22;13988;52.446;13.280;2024-01-30T09:44:03;4.30;99.90
26262;DHT22;13988;52.446;13.280;2024-01-30T09:46:32;4.30;99.90
26262;DHT22;13988;52.446;13.280;2024-01-30T09:49:00;4.50;99.90
26262;DHT22;13988;52.446;13.280;2024-01-30T09:51:27;4.50;99.90
26262;DHT22;13988;52.446;13.280;2024-01-30T09:53:55;4.60;99.90
26262;DHT22;13988;52.446;13.280;2024-01-30T09:56:22;4.70;99.90
26262;DHT22;13988;52.446;13.280;2024-01-30T09:58:47;4.70;99.90
26262;DHT22;13988;52.446;13.280;2024-01-30T10:01:15;4.80;99.90
26262;DHT22;13988;52.446;13.280;2024-01-30T10:03:44;4.80;99.90
26262;DHT22;13988;52.446;13.280;2024-01-30T10:06:10;4.90;99.90
26262;DHT22;13988;52.446;13.280;2024-01-30T10:08:36;5.00;99.90
26262;DHT22;13988;52.446;13.280;2024-01-30T10:11:01;5.10;99.90
26262;DHT22;13988;52.446;13.280;2024-01-30T10:13:28;5.20;99.90
26262;DHT22;13988;52.446;13.280;2024-01-30T10:15:55;5.20;99.90
26262;DHT22;13988;52.446;13.280;2024-01-30T10:18:22;5.30;99.90
26262;DHT22;13988;52.446;13.280;2024-01-30T10:20:48;5.40;99.90
26262;DHT22;13988;52.446;13.280;2024-01-30T10:23:14;5.40;99.90
26262;DHT22;13988;52.446;13.280;2024-01-30T10:25:39;5.40;99.90
26262;DHT22;13988;52.446;13.280;2024-01-30T10:28:06;5.60;99.90
26262;DHT22;13988;52.446;13.280;2024-01-30T10:30:31;5.60;99.90
26262;DHT22;13988;52.446;13.280;2024-01-30T10:32:57;5.60;99.90
26262;DHT22;13988;52.446;13.280;2024-01-30T10:35:23;5.80;99.90
26262;DHT22;13988;52.446;13.280;2024-01-30T10:37:48;5.90;99.90
26262;DHT22;13988;52.446;13.280;2024-01-30T10:40:14;5.90;99.90
26262;DHT22;13988;52.446;13.280;2024-01-30T10:42:44;6.00;99.90
26262;DHT22;13988;52.446;13.280;2024-01-30T10:45:14;6.00;99.90
26262;DHT22;13988;52.446;13.280;2024-01-30T10:47:49;6.10;99.90
26262;DHT22;13988;52.446;13.280;2024-01-30T10:50:15;6.10;99.90
26262;DHT22;13988;52.446;13.280;2024-01-30T10:52:42;6.10;99.90
26262;DHT22;13988;52.446;13.280;2024-01-30T10:55:09;6.10;99.90
26262;DHT22;13988;52.446;13.280;2024-01-30T10:57:35;6.20;99.90
26262;DHT22;13988;52.446;13.280;2024-01-30T11:00:10;6.20;99.90
26262;DHT22;13988;52.446;13.280;2024-01-30T11:02:47;6.20;99.90
26262;DHT22;13988;52.446;13.280;2024-01-30T11:05:13;6.30;99.90
26262;DHT22;13988;52.446;13.280;2024-01-30T11:07:41;6.40;99.90
26262;DHT22;13988;52.446;13.280;2024-01-30T11:10:07;6.30;99.90
26262;DHT22;13988;52.446;13.280;2024-01-30T11:12:39;6.40;99.90
26262;DHT22;13988;52.446;13.280;2024-01-30T11:15:18;6.40;99.90
26262;DHT22;13988;52.446;13.280;2024-01-30T11:20:49;6.50;99.90
26262;DHT22;13988;52.446;13.280;2024-01-30T11:23:11;6.50;99.90
26262;DHT22;13988;52.446;13.280;2024-01-30T11:25:37;6.40;99.90
26262;DHT22;13988;52.446;13.280;2024-01-30T11:28:03;6.50;99.90
26262;DHT22;13988;52.446;13.280;2024-01-30T11:30:30;6.60;99.90
26262;DHT22;13988;52.446;13.280;2024-01-30T11:33:13;6.60;99.90
26262;DHT22;13988;52.446;13.280;2024-01-30T11:38:06;6.70;99.90
26262;DHT22;13988;52.446;13.280;2024-01-30T11:40:32;6.70;99.90
26262;DHT22;13988;52.446;13.280;2024-01-30T11:42:59;6.80;99.90
26262;DHT22;13988;52.446;13.280;2024-01-30T11:45:27;6.90;99.90
26262;DHT22;13988;52.446;13.280;2024-01-30T11:47:53;6.80;99.90
26262;DHT22;13988;52.446;13.280;2024-01-30T11:50:20;6.90;99.90
26262;DHT22;13988;52.446;13.280;2024-01-30T11:52:46;6.90;99.90
26262;DHT22;13988;52.446;13.280;2024-01-30T11:55:12;6.90;99.90
26262;DHT22;13988;52.446;13.280;2024-01-30T11:57:38;7.00;99.90
26262;DHT22;13988;52.446;13.280;2024-01-30T12:00:17;7.10;99.90
26262;DHT22;13988;52.446;13.280;2024-01-30T12:02:44;7.20;99.90
26262;DHT22;13988;52.446;13.280;2024-01-30T12:05:09;7.30;99.90
26262;DHT22;13988;52.446;13.280;2024-01-30T12:07:36;7.40;99.90
26262;DHT22;13988;52.446;13.280;2024-01-30T12:10:02;7.60;99.90
26262;DHT22;13988;52.446;13.280;2024-01-30T12:12:28;7.60;99.90
26262;DHT22;13988;52.446;13.280;2024-01-30T12:14:55;7.60;99.90
26262;DHT22;13988;52.446;13.280;2024-01-30T12:17:28;7.50;99.90
26262;DHT22;13988;52.446;13.280;2024-01-30T12:20:12;7.50;99.90
26262;DHT22;13988;52.446;13.280;2024-01-30T12:22:40;7.50;99.90
26262;DHT22;13988;52.446;13.280;2024-01-30T12:25:13;7.70;99.90
26262;DHT22;13988;52.446;13.280;2024-01-30T12:27:42;7.70;99.90
26262;DHT22;13988;52.446;13.280;2024-01-30T12:30:12;7.90;99.90
26262;DHT22;13988;52.446;13.280;2024-01-30T12:32:42;8.00;99.90
26262;DHT22;13988;52.446;13.280;2024-01-30T12:35:13;8.10;99.90
26262;DHT22;13988;52.446;13.280;2024-01-30T12:37:39;8.10;99.90
26262;DHT22;13988;52.446;13.280;2024-01-30T12:40:05;8.00;99.90
26262;DHT22;13988;52.446;13.280;2024-01-30T12:42:32;8.10;99.90
26262;DHT22;13988;52.446;13.280;2024-01-30T12:44:58;8.30;99.90
26262;DHT22;13988;52.446;13.280;2024-01-30T12:47:24;8.30;99.90
26262;DHT22;13988;52.446;13.280;2024-01-30T12:49:50;8.30;99.90
26262;DHT22;13988;52.446;13.280;2024-01-30T12:52:19;8.10;99.90
26262;DHT22;13988;52.446;13.280;2024-01-30T12:54:46;8.10;99.90
26262;DHT22;13988;52.446;13.280;2024-01-30T12:57:11;8.00;99.90
26262;DHT22;13988;52.446;13.280;2024-01-30T12:59:37;8.10;99.90
26262;DHT22;13988;52.446;13.280;2024-01-30T13:02:03;8.00;99.90
26262;DHT22;13988;52.446;13.280;2024-01-30T13:04:29;8.00;99.90
26262;DHT22;13988;52.446;13.280;2024-01-30T13:06:55;8.10;99.90
26262;DHT22;13988;52.446;13.280;2024-01-30T13:09:21;8.10;99.90
26262;DHT22;13988;52.446;13.280;2024-01-30T13:11:46;8.10;99.90
26262;DHT22;13988;52.446;13.280;2024-01-30T13:14:12;8.20;99.90
26262;DHT22;13988;52.446;13.280;2024-01-30T13:16:38;8.20;99.90
26262;DHT22;13988;52.446;13.280;2024-01-30T13:19:03;8.40;99.90
26262;DHT22;13988;52.446;13.280;2024-01-30T13:21:29;8.40;99.90
26262;DHT22;13988;52.446;13.280;2024-01-30T13:23:55;8.40;99.90
26262;DHT22;13988;52.446;13.280;2024-01-30T13:26:21;8.30;99.90
26262;DHT22;13988;52.446;13.280;2024-01-30T13:28:47;8.20;99.90
26262;DHT22;13988;52.446;13.280;2024-01-30T13:31:14;8.20;99.90
26262;DHT22;13988;52.446;13.280;2024-01-30T13:33:40;8.30;99.90
26262;DHT22;13988;52.446;13.280;2024-01-30T13:36:07;8.30;99.90
26262;DHT22;13988;52.446;13.280;2024-01-30T13:38:33;8.30;99.90
26262;DHT22;13988;52.446;13.280;2024-01-30T13:40:59;8.30;99.90
26262;DHT22;13988;52.446;13.280;2024-01-30T13:43:25;8.30;99.90
26262;DHT22;13988;52.446;13.280;2024-01-30T13:45:50;8.30;99.90
26262;DHT22;13988;52.446;13.280;2024-01-30T13:48:16;8.30;99.90
26262;DHT22;13988;52.446;13.280;2024-01-30T13:50:42;8.20;99.90
26262;DHT22;13988;52.446;13.280;2024-01-30T13:53:07;8.20;99.90
26262;DHT22;13988;52.446;13.280;2024-01-30T13:55:34;8.20;99.90
26262;DHT22;13988;52.446;13.280;2024-01-30T13:58:00;8.20;99.90
26262;DHT22;13988;52.446;13.280;2024-01-30T14:00:27;8.20;99.90
26262;DHT22;13988;52.446;13.280;2024-01-30T14:02:52;8.10;99.90
26262;DHT22;13988;52.446;13.280;2024-01-30T14:05:20;8.10;99.90
26262;DHT22;13988;52.446;13.280;2024-01-30T14:07:47;8.10;99.90
26262;DHT22;13988;52.446;13.280;2024-01-30T14:10:13;8.00;99.90
26262;DHT22;13988;52.446;13.280;2024-01-30T14:12:38;8.00;99.90
26262;DHT22;13988;52.446;13.280;2024-01-30T14:15:05;8.10;99.90
26262;DHT22;13988;52.446;13.280;2024-01-30T14:17:30;8.00;99.90
26262;DHT22;13988;52.446;13.280;2024-01-30T14:19:56;8.10;99.90
26262;DHT22;13988;52.446;13.280;2024-01-30T14:22:22;8.10;99.90
26262;DHT22;13988;52.446;13.280;2024-01-30T14:24:47;8.10;99.90
26262;DHT22;13988;52.446;13.280;2024-01-30T14:27:13;8.00;99.90
26262;DHT22;13988;52.446;13.280;2024-01-30T14:29:39;8.00;99.90
26262;DHT22;13988;52.446;13.280;2024-01-30T14:32:05;8.00;99.90
26262;DHT22;13988;52.446;13.280;2024-01-30T14:34:30;7.90;99.90
26262;DHT22;13988;52.446;13.280;2024-01-30T14:36:56;7.90;99.90
26262;DHT22;13988;52.446;13.280;2024-01-30T14:39:22;7.90;99.90
26262;DHT22;13988;52.446;13.280;2024-01-30T14:41:48;7.90;99.90
26262;DHT22;13988;52.446;13.280;2024-01-30T14:44:14;7.80;99.90
26262;DHT22;13988;52.446;13.280;2024-01-30T14:46:40;7.80;99.90
26262;DHT22;13988;52.446;13.280;2024-01-30T14:49:06;7.70;99.90
26262;DHT22;13988;52.446;13.280;2024-01-30T14:51:33;7.60;99.90
26262;DHT22;13988;52.446;13.280;2024-01-30T14:53:59;7.60;99.90
26262;DHT22;13988;52.446;13.280;2024-01-30T14:56:25;7.50;99.90
26262;DHT22;13988;52.446;13.280;2024-01-30T14:58:51;7.50;99.90
26262;DHT22;13988;52.446;13.280;2024-01-30T15:01:17;7.50;99.90
26262;DHT22;13988;52.446;13.280;2024-01-30T15:03:44;7.50;99.90
26262;DHT22;13988;52.446;13.280;2024-01-30T15:06:11;7.40;99.90
26262;DHT22;13988;52.446;13.280;2024-01-30T15:08:37;7.40;99.90
26262;DHT22;13988;52.446;13.280;2024-01-30T15:11:03;7.40;99.90
26262;DHT22;13988;52.446;13.280;2024-01-30T15:13:30;7.40;99.90
26262;DHT22;13988;52.446;13.280;2024-01-30T15:15:55;7.40;99.90
26262;DHT22;13988;52.446;13.280;2024-01-30T15:18:21;7.40;99.90
26262;DHT22;13988;52.446;13.280;2024-01-30T15:20:47;7.30;99.90
26262;DHT22;13988;52.446;13.280;2024-01-30T15:23:13;7.30;99.90
26262;DHT22;13988;52.446;13.280;2024-01-30T15:25:39;7.20;99.90
26262;DHT22;13988;52.446;13.280;2024-01-30T15:28:05;7.10;99.90
26262;DHT22;13988;52.446;13.280;2024-01-30T15:30:31;7.20;99.90